Time;durP1;ratioP1;P1;durP2;ratioP2;P2;SDS_P1;SDS_P2;PMS_P1;PMS_P2;Temp;Humidity;BMP_temperature;BMP_pressure;BME280_temperature;BME280_humidity;BME280_pressure;Samples;Min_cycle;Max_cycle;Signal;HPM_P1;HPM_P2
2022/04/04 00:00:38;;;;;;;7.30;3.40;;;;;;;6.98;49.27;101829.47;5074135;28;20045;-66
2022/04/04 00:03:05;;;;;;;5.55;3.85;;;;;;;6.99;49.19;101822.31;5073315;28;20044;-63
2022/04/04 00:05:32;;;;;;;5.18;3.35;;;;;;;7.00;49.05;101818.72;5079199;28;20070;-64
2022/04/04 00:07:58;;;;;;;5.57;4.07;;;;;;;7.03;48.93;101813.25;5074170;28;20452;-64
2022/04/04 00:10:25;;;;;;;5.10;3.90;;;;;;;7.03;49.03;101812.38;5072881;28;20584;-64
2022/04/04 00:12:53;;;;;;;4.65;4.07;;;;;;;7.01;49.20;101810.63;5073962;28;20078;-64
2022/04/04 00:15:20;;;;;;;4.93;4.03;;;;;;;7.01;49.26;101807.97;5068547;28;20063;-63
2022/04/04 00:17:52;;;;;;;4.82;3.72;;;;;;;6.99;49.06;101801.81;5072567;28;20060;-64
2022/04/04 00:20:19;;;;;;;8.25;4.30;;;;;;;6.95;49.00;101794.88;5054520;28;20141;-64
2022/04/04 00:22:46;;;;;;;9.55;4.40;;;;;;;6.92;49.03;101796.78;5058985;28;20028;-63
2022/04/04 00:25:13;;;;;;;6.57;4.30;;;;;;;6.85;49.07;101792.63;5073917;28;20040;-63
2022/04/04 00:27:40;;;;;;;7.47;4.60;;;;;;;6.80;49.03;101790.16;5072864;28;20536;-64
2022/04/04 00:30:07;;;;;;;5.90;4.50;;;;;;;6.78;49.08;101794.69;5072390;28;20375;-64
2022/04/04 00:32:36;;;;;;;6.32;4.60;;;;;;;6.78;49.20;101788.47;5072842;28;20123;-64
2022/04/04 00:35:03;;;;;;;9.55;5.20;;;;;;;6.78;49.14;101778.66;5072804;28;20494;-63
2022/04/04 00:37:29;;;;;;;5.97;4.57;;;;;;;6.78;49.16;101777.78;5037220;28;20430;-65
2022/04/04 00:39:59;;;;;;;7.90;4.90;;;;;;;6.78;49.29;101773.31;5056478;28;20041;-64
2022/04/04 00:42:26;;;;;;;6.35;4.55;;;;;;;6.77;49.21;101768.06;5054793;28;20111;-64
2022/04/04 00:44:52;;;;;;;6.03;5.00;;;;;;;6.78;49.13;101775.13;5072903;28;20401;-63
2022/04/04 00:47:19;;;;;;;5.22;4.45;;;;;;;6.76;49.21;101766.31;5054375;28;20131;-64
2022/04/04 00:49:45;;;;;;;7.88;5.20;;;;;;;6.77;49.22;101765.38;5072421;28;20112;-64
2022/04/04 00:52:12;;;;;;;10.15;5.10;;;;;;;6.75;49.38;101762.78;5072629;28;20041;-64
2022/04/04 00:54:38;;;;;;;7.88;5.40;;;;;;;6.76;49.19;101767.19;5071474;28;20059;-64
2022/04/04 00:57:05;;;;;;;9.18;4.93;;;;;;;6.76;49.45;101753.84;5072544;28;20486;-63
2022/04/04 00:59:38;;;;;;;6.07;4.95;;;;;;;6.77;49.23;101752.03;5072807;28;20045;-62
2022/04/04 01:02:05;;;;;;;8.60;5.97;;;;;;;6.77;49.37;101747.56;5069058;28;20518;-63
2022/04/04 01:04:32;;;;;;;8.65;5.63;;;;;;;6.75;49.25;101746.75;5069262;28;20056;-64
2022/04/04 01:07:04;;;;;;;10.57;5.75;;;;;;;6.73;49.18;101745.94;5072723;28;20041;-62
2022/04/04 01:09:31;;;;;;;8.15;5.97;;;;;;;6.73;49.18;101739.75;5072336;28;20046;-63
2022/04/04 01:12:08;;;;;;;9.05;6.28;;;;;;;6.72;49.18;101732.66;5072042;28;20083;-63
2022/04/04 01:14:47;;;;;;;8.95;5.82;;;;;;;6.71;49.34;101733.59;5071874;28;20162;-64
2022/04/04 01:17:19;;;;;;;7.00;5.63;;;;;;;6.68;49.17;101726.53;5071832;28;20402;-62
2022/04/04 01:19:46;;;;;;;8.23;6.15;;;;;;;6.65;49.28;101724.00;5051319;28;20049;-63
2022/04/04 01:22:17;;;;;;;11.57;6.28;;;;;;;6.64;49.32;101722.25;5067138;28;20048;-64
2022/04/04 01:24:44;;;;;;;7.75;5.95;;;;;;;6.64;49.42;101714.25;5071325;28;20040;-64
2022/04/04 01:27:15;;;;;;;8.70;6.60;;;;;;;6.64;49.24;101706.25;5072298;28;20042;-63
2022/04/04 01:29:42;;;;;;;7.97;6.40;;;;;;;6.63;49.27;101707.19;5072484;28;20039;-64
2022/04/04 01:32:09;;;;;;;9.23;6.70;;;;;;;6.62;49.43;101705.44;5071285;28;20047;-64
2022/04/04 01:34:37;;;;;;;8.48;6.28;;;;;;;6.62;49.30;101703.66;5071746;28;20035;-64
2022/04/04 01:37:04;;;;;;;9.68;6.60;;;;;;;6.62;49.33;101697.44;5071368;28;20036;-64
2022/04/04 01:39:31;;;;;;;9.23;6.32;;;;;;;6.61;49.34;101691.22;5071502;28;20036;-63
2022/04/04 01:41:58;;;;;;;8.32;6.65;;;;;;;6.61;49.42;101680.56;5071005;28;20041;-64
2022/04/04 01:44:24;;;;;;;9.50;6.90;;;;;;;6.60;49.48;101680.63;5070552;28;20492;-64
2022/04/04 01:46:53;;;;;;;8.27;6.60;;;;;;;6.59;49.28;101673.53;5072317;28;20032;-63
2022/04/04 01:49:19;;;;;;;10.45;7.05;;;;;;;6.57;49.38;101668.28;5071438;28;20064;-64
2022/04/04 01:51:46;;;;;;;10.68;6.38;;;;;;;6.59;49.46;101663.75;5052735;28;20037;-63
2022/04/04 01:54:13;;;;;;;8.20;6.25;;;;;;;6.57;49.43;101654.94;5075534;28;20826;-63
2022/04/04 01:56:41;;;;;;;9.18;6.93;;;;;;;6.57;49.29;101656.72;5045716;28;20063;-63
2022/04/04 01:59:09;;;;;;;9.45;6.13;;;;;;;6.56;49.42;101647.00;5056205;28;20464;-64
2022/04/04 02:01:39;;;;;;;7.93;6.10;;;;;;;6.54;49.55;101643.50;5072805;28;20045;-63
2022/04/04 02:04:09;;;;;;;9.27;6.93;;;;;;;6.54;49.56;101635.50;5057943;28;20496;-64
2022/04/04 02:06:35;;;;;;;10.75;6.80;;;;;;;6.54;49.48;101627.50;5069611;28;20062;-64
2022/04/04 02:09:02;;;;;;;8.82;6.30;;;;;;;6.54;49.45;101624.84;5075486;28;20480;-63
2022/04/04 02:11:28;;;;;;;9.68;7.00;;;;;;;6.49;49.44;101616.16;5074815;28;20048;-63
2022/04/04 02:13:56;;;;;;;9.65;6.88;;;;;;;6.45;49.37;101609.22;5072668;28;20387;-64
2022/04/04 02:16:22;;;;;;;8.25;7.20;;;;;;;6.41;49.45;101610.28;5072799;28;20033;-63
2022/04/04 02:18:52;;;;;;;8.77;7.25;;;;;;;6.36;49.56;101606.00;5039679;28;20091;-65
2022/04/04 02:21:19;;;;;;;11.60;8.20;;;;;;;6.35;49.54;101606.94;5070395;28;20267;-63
2022/04/04 02:23:45;;;;;;;9.75;7.47;;;;;;;6.35;49.74;101604.25;5073913;28;20658;-63
2022/04/04 02:26:13;;;;;;;14.25;7.95;;;;;;;6.35;49.79;101601.59;5070578;28;20044;-63
2022/04/04 02:28:43;;;;;;;9.63;7.20;;;;;;;6.37;49.70;101593.53;5073828;28;20060;-63
2022/04/04 02:31:10;;;;;;;10.15;7.00;;;;;;;6.36;49.82;101587.31;5075629;28;20106;-63
2022/04/04 02:33:36;;;;;;;9.77;7.25;;;;;;;6.37;49.77;101583.72;5075033;28;20044;-64
2022/04/04 02:36:03;;;;;;;10.20;7.43;;;;;;;6.38;49.88;101581.91;5074664;28;20037;-63
2022/04/04 02:38:32;;;;;;;10.50;6.90;;;;;;;6.38;49.98;101571.25;5057327;28;20137;-63
2022/04/04 02:40:59;;;;;;;10.38;7.25;;;;;;;6.40;49.98;101569.38;5075003;28;20044;-63
2022/04/04 02:43:26;;;;;;;9.60;7.22;;;;;;;6.41;49.82;101557.78;5075119;28;20094;-63
2022/04/04 02:45:53;;;;;;;10.05;7.68;;;;;;;6.41;49.92;101559.56;5058052;28;20406;-62
2022/04/04 02:48:20;;;;;;;9.18;6.22;;;;;;;6.40;49.90;101555.16;5075247;28;20037;-63
2022/04/04 02:50:47;;;;;;;12.65;6.97;;;;;;;6.41;50.00;101548.91;5073031;28;20064;-63
2022/04/04 02:53:14;;;;;;;15.35;6.63;;;;;;;6.40;49.94;101542.69;5074806;28;20399;-64
2022/04/04 02:58:27;;;;;;;11.52;6.78;;;;;;;6.43;50.05;101534.56;5074540;28;20052;-63
2022/04/04 03:00:54;;;;;;;9.95;6.35;;;;;;;6.44;50.05;101522.09;5056924;28;20438;-63
2022/04/04 03:03:25;;;;;;;12.07;6.65;;;;;;;6.45;50.21;101522.03;5074602;28;20098;-63
2022/04/04 03:05:55;;;;;;;7.57;6.03;;;;;;;6.47;50.20;101514.81;5072613;28;20051;-63
2022/04/04 03:08:21;;;;;;;9.10;6.38;;;;;;;6.50;50.22;101513.81;5074403;28;20048;-63
2022/04/04 03:10:48;;;;;;;8.70;6.90;;;;;;;6.53;50.16;101516.34;5072926;28;20051;-62
2022/04/04 03:13:19;;;;;;;7.78;6.22;;;;;;;6.54;50.29;101504.75;5074529;28;20032;-62
2022/04/04 03:15:46;;;;;;;10.65;5.72;;;;;;;6.55;50.30;101502.00;5074062;28;20041;-63
2022/04/04 03:18:12;;;;;;;9.20;6.68;;;;;;;6.57;50.29;101494.81;5074909;28;20468;-62
2022/04/04 03:20:39;;;;;;;8.10;5.93;;;;;;;6.57;50.24;101485.94;5072457;28;20040;-64
2022/04/04 03:23:07;;;;;;;10.30;6.38;;;;;;;6.57;50.32;101478.78;5074590;28;20044;-63
2022/04/04 03:25:33;;;;;;;7.45;5.68;;;;;;;6.60;50.40;101473.31;5074116;28;20486;-62
2022/04/04 03:28:00;;;;;;;10.60;6.10;;;;;;;6.62;50.45;101476.78;5073796;28;20123;-63
2022/04/04 03:30:33;;;;;;;14.23;5.85;;;;;;;6.64;50.44;101468.72;5073539;28;20052;-63
2022/04/04 03:33:00;;;;;;;8.43;5.50;;;;;;;6.66;50.50;101466.84;5074796;28;20398;-62
2022/04/04 03:35:30;;;;;;;9.20;5.20;;;;;;;6.68;50.54;101465.84;5074280;28;20059;-63
2022/04/04 03:37:59;;;;;;;10.55;6.07;;;;;;;6.71;50.36;101454.19;5072394;28;20071;-64
2022/04/04 03:40:26;;;;;;;7.65;5.38;;;;;;;6.74;50.70;101454.03;5073359;28;20555;-63
2022/04/04 03:42:56;;;;;;;7.65;5.45;;;;;;;6.74;50.51;101448.72;5073959;28;20420;-63
2022/04/04 03:45:26;;;;;;;7.88;5.30;;;;;;;6.76;50.71;101444.16;5056917;28;20074;-62
2022/04/04 03:47:53;;;;;;;8.23;5.72;;;;;;;6.78;50.54;101434.28;5074485;28;20051;-62
2022/04/04 03:50:21;;;;;;;8.48;5.72;;;;;;;6.80;50.69;101427.06;5073189;28;20091;-63
2022/04/04 03:52:52;;;;;;;7.15;4.70;;;;;;;6.83;50.58;101421.59;5072439;28;20048;-62
2022/04/04 03:55:28;;;;;;;8.25;5.72;;;;;;;6.86;50.84;101416.09;5054224;28;20488;-62
2022/04/04 03:57:56;;;;;;;7.10;5.53;;;;;;;6.88;50.69;101418.72;5052915;28;20044;-63
2022/04/04 04:00:24;;;;;;;7.78;5.85;;;;;;;6.92;50.66;101410.47;5053745;28;20040;-63
2022/04/04 04:02:51;;;;;;;13.75;6.35;;;;;;;6.95;50.71;101409.47;5053271;28;20103;-63
2022/04/04 04:05:18;;;;;;;7.00;5.15;;;;;;;6.96;50.82;101406.72;5052685;28;20055;-62
2022/04/04 04:07:44;;;;;;;7.88;5.47;;;;;;;6.97;50.70;101403.13;5053162;28;20041;-63
2022/04/04 04:10:11;;;;;;;9.82;6.13;;;;;;;6.99;50.72;101397.72;5034862;28;20139;-63
2022/04/04 04:12:40;;;;;;;7.55;5.50;;;;;;;7.01;50.87;101396.69;5054049;28;20470;-64
2022/04/04 04:15:13;;;;;;;8.07;5.38;;;;;;;7.01;50.76;101391.34;5033682;28;20503;-63
2022/04/04 04:17:39;;;;;;;8.20;5.70;;;;;;;7.03;50.92;101393.94;5050037;28;20095;-62
2022/04/04 04:20:19;;;;;;;8.45;5.50;;;;;;;7.04;50.91;101387.66;5053994;28;20143;-63
2022/04/04 04:22:57;;;;;;;7.32;5.65;;;;;;;7.04;50.72;101385.00;5053901;28;20399;-64
2022/04/04 04:25:27;;;;;;;10.75;6.45;;;;;;;7.07;50.77;101376.84;5053715;28;20131;-62
2022/04/04 04:27:56;;;;;;;7.53;5.60;;;;;;;7.08;50.90;101367.88;5053905;28;20040;-62
2022/04/04 04:30:23;;;;;;;9.70;5.82;;;;;;;7.10;50.93;101359.81;5053541;28;20047;-64
2022/04/04 04:32:53;;;;;;;8.68;5.22;;;;;;;7.11;50.80;101361.53;5053164;28;20083;-64
2022/04/04 04:35:21;;;;;;;10.55;5.97;;;;;;;7.09;50.88;101352.72;5053630;28;20135;-62
2022/04/04 04:37:50;;;;;;;9.18;5.57;;;;;;;7.09;50.83;101352.72;5053418;28;20055;-63
2022/04/04 04:40:20;;;;;;;8.18;6.18;;;;;;;7.10;50.75;101343.78;5034552;28;20045;-64
2022/04/04 04:42:48;;;;;;;7.25;5.78;;;;;;;7.11;51.00;101340.16;5053498;28;20037;-62
2022/04/04 04:45:15;;;;;;;9.93;6.45;;;;;;;7.12;50.97;101337.41;5053765;28;20119;-63
2022/04/04 04:47:42;;;;;;;10.82;6.60;;;;;;;7.15;50.90;101337.28;5036638;28;20045;-63
2022/04/04 04:50:14;;;;;;;8.63;5.90;;;;;;;7.17;50.97;101321.16;5034369;28;20554;-63
2022/04/04 04:52:42;;;;;;;9.02;6.60;;;;;;;7.18;50.57;101321.09;5047228;28;20543;-62
2022/04/04 04:55:09;;;;;;;8.85;6.55;;;;;;;7.19;51.06;101321.97;5052493;28;20538;-64
2022/04/04 04:57:36;;;;;;;10.68;6.40;;;;;;;7.18;51.04;101307.75;5070630;28;20068;-64
2022/04/04 05:00:05;;;;;;;10.80;6.82;;;;;;;7.19;51.05;101306.78;5073167;28;20065;-63
2022/04/04 05:02:34;;;;;;;11.60;6.93;;;;;;;7.19;50.95;101300.59;5073415;28;20032;-63
2022/04/04 05:05:04;;;;;;;8.95;6.43;;;;;;;7.19;51.05;101304.13;5073518;28;20048;-63
2022/04/04 05:07:31;;;;;;;7.00;6.30;;;;;;;7.20;51.05;101295.16;5055097;28;20470;-63
2022/04/04 05:10:00;;;;;;;8.75;6.93;;;;;;;7.22;51.14;101289.75;5053795;28;20036;-63
2022/04/04 05:12:26;;;;;;;8.80;6.18;;;;;;;7.22;51.10;101289.75;5073388;28;20438;-63
2022/04/04 05:14:53;;;;;;;11.88;7.00;;;;;;;7.23;51.18;101283.47;5073053;28;20140;-63
2022/04/04 05:17:19;;;;;;;9.57;6.45;;;;;;;7.23;51.26;101276.31;5073158;28;20131;-62
2022/04/04 05:19:47;;;;;;;10.93;6.78;;;;;;;7.26;51.18;101272.63;5072189;28;20548;-63
2022/04/04 05:22:14;;;;;;;9.63;7.28;;;;;;;7.27;51.23;101261.88;5073221;28;20041;-63
2022/04/04 05:24:41;;;;;;;9.15;7.05;;;;;;;7.28;51.26;101263.59;5055301;28;20470;-63
2022/04/04 05:27:08;;;;;;;13.00;7.15;;;;;;;7.31;51.19;101257.22;5056153;28;20513;-63
2022/04/04 05:29:37;;;;;;;7.97;6.20;;;;;;;7.31;51.32;101254.56;5076171;28;20040;-63
2022/04/04 05:32:04;;;;;;;10.65;7.50;;;;;;;7.33;51.41;101250.88;5077180;28;20474;-62
2022/04/04 05:34:31;;;;;;;10.32;7.55;;;;;;;7.34;51.49;101238.38;5077462;28;20044;-64
2022/04/04 05:36:59;;;;;;;11.40;6.82;;;;;;;7.38;51.39;101239.94;5077037;28;20044;-63
2022/04/04 05:39:26;;;;;;;11.18;7.57;;;;;;;7.40;51.60;101231.84;5074419;28;20086;-63
2022/04/04 05:41:53;;;;;;;9.38;6.72;;;;;;;7.43;51.71;101224.56;5079197;28;20514;-63
2022/04/04 05:44:19;;;;;;;11.38;7.57;;;;;;;7.48;51.62;101222.53;5076881;28;20095;-63
2022/04/04 05:46:49;;;;;;;10.68;7.40;;;;;;;7.52;51.75;101217.88;5076358;28;20098;-63
2022/04/04 05:49:16;;;;;;;11.32;7.38;;;;;;;7.55;51.67;101201.69;5074484;28;20041;-64
2022/04/04 05:51:42;;;;;;;9.30;7.13;;;;;;;7.58;51.62;101197.03;5055380;28;20063;-65
2022/04/04 05:54:27;;;;;;;14.07;8.23;;;;;;;7.62;51.79;101185.22;5074816;28;20405;-64
2022/04/04 05:57:03;;;;;;;12.10;8.15;;;;;;;7.65;51.70;101186.88;5076438;28;20513;-64
2022/04/04 05:59:29;;;;;;;11.20;7.63;;;;;;;7.68;51.62;101183.19;5075292;28;20478;-64
2022/04/04 06:01:56;;;;;;;11.55;8.45;;;;;;;7.71;51.77;101178.53;5075330;28;20543;-64
2022/04/04 06:04:23;;;;;;;15.00;7.57;;;;;;;7.75;51.85;101173.88;5087475;28;20040;-64
2022/04/04 06:06:50;;;;;;;11.82;8.13;;;;;;;7.79;51.75;101168.28;5077856;28;20040;-64
2022/04/04 06:09:16;;;;;;;11.50;7.97;;;;;;;7.83;51.63;101161.81;5058595;28;20059;-63
2022/04/04 06:11:43;;;;;;;10.77;7.60;;;;;;;7.87;51.92;101165.19;5076495;28;20432;-65
2022/04/04 06:14:09;;;;;;;10.13;7.85;;;;;;;7.91;51.79;101158.72;5076360;28;20036;-65
2022/04/04 06:16:36;;;;;;;14.82;8.18;;;;;;;7.95;51.79;101157.59;5058760;28;20094;-64
2022/04/04 06:19:03;;;;;;;12.38;8.25;;;;;;;7.99;51.89;101153.81;5076078;28;20131;-63
2022/04/04 06:21:30;;;;;;;14.45;8.00;;;;;;;8.04;51.83;101148.22;5076054;28;20139;-65
2022/04/04 06:23:56;;;;;;;13.73;9.45;;;;;;;8.07;51.81;101150.72;5058375;28;20048;-63
2022/04/04 06:26:23;;;;;;;11.88;8.40;;;;;;;8.09;51.90;101154.16;5076276;28;20128;-62
2022/04/04 06:28:50;;;;;;;13.00;7.57;;;;;;;8.14;51.96;101144.06;5064665;28;20087;-63
2022/04/04 06:31:16;;;;;;;11.75;7.50;;;;;;;8.18;51.95;101146.53;5067798;28;20060;-62
2022/04/04 06:33:43;;;;;;;11.07;8.73;;;;;;;8.24;51.77;101139.97;5075581;28;20040;-61
2022/04/04 06:36:10;;;;;;;13.48;8.15;;;;;;;8.29;51.95;101149.44;5058123;28;20055;-63
2022/04/04 06:38:36;;;;;;;12.25;8.45;;;;;;;8.35;51.98;101140.25;5074789;28;20490;-62
2022/04/04 06:41:03;;;;;;;13.02;8.80;;;;;;;8.43;51.98;101140.66;5058044;28;20045;-62
2022/04/04 06:43:29;;;;;;;12.23;9.02;;;;;;;8.52;52.05;101129.44;5075867;28;20036;-62
2022/04/04 06:45:56;;;;;;;12.40;8.85;;;;;;;8.59;52.07;101129.94;5075800;28;20040;-62
2022/04/04 06:48:23;;;;;;;12.05;8.30;;;;;;;8.65;51.92;101126.03;5075374;28;20036;-64
2022/04/04 06:50:50;;;;;;;10.70;8.32;;;;;;;8.70;51.77;101118.59;5076011;28;20139;-63
2022/04/04 06:53:20;;;;;;;11.98;8.52;;;;;;;8.73;51.75;101110.38;5073244;28;20384;-64
2022/04/04 06:55:46;;;;;;;15.48;8.70;;;;;;;8.80;51.76;101115.28;5057685;28;20136;-65
2022/04/04 06:58:17;;;;;;;12.57;8.30;;;;;;;8.83;51.73;101109.75;5075419;28;20478;-62
2022/04/04 07:00:45;;;;;;;11.48;8.52;;;;;;;8.88;51.57;101101.44;5041239;28;20045;-63
2022/04/04 07:03:12;;;;;;;10.88;8.32;;;;;;;8.93;51.49;101091.34;5057457;28;20044;-62
2022/04/04 07:05:38;;;;;;;12.02;8.18;;;;;;;8.98;51.64;101099.09;5057805;28;20118;-62
2022/04/04 07:08:06;;;;;;;12.40;8.30;;;;;;;9.01;51.54;101096.22;5075375;28;20398;-64
2022/04/04 07:10:33;;;;;;;11.73;7.72;;;;;;;9.05;51.34;101081.69;5057858;28;20040;-62
2022/04/04 07:13:00;;;;;;;12.60;8.85;;;;;;;9.08;51.32;101071.66;5057390;28;20050;-63
2022/04/04 07:15:28;;;;;;;13.32;8.70;;;;;;;9.13;51.36;101085.63;5075265;28;20041;-62
2022/04/04 07:17:54;;;;;;;11.48;8.00;;;;;;;9.18;51.23;101063.91;5074325;28;20096;-64
2022/04/04 07:20:21;;;;;;;9.60;8.23;;;;;;;9.22;51.21;101062.75;5075434;28;20064;-62
2022/04/04 07:22:48;;;;;;;10.32;8.13;;;;;;;9.29;51.16;101068.59;5074777;28;20033;-64
2022/04/04 07:25:14;;;;;;;11.55;8.45;;;;;;;9.33;51.14;101054.91;5074998;28;20048;-63
2022/04/04 07:27:44;;;;;;;13.32;8.30;;;;;;;9.38;51.07;101051.94;5073863;28;20048;-63
2022/04/04 07:30:13;;;;;;;11.20;7.88;;;;;;;9.43;51.09;101058.75;5059608;28;20049;-64
2022/04/04 07:32:40;;;;;;;9.65;7.80;;;;;;;9.48;51.07;101055.78;5037156;28;20041;-63
2022/04/04 07:35:12;;;;;;;12.75;7.85;;;;;;;9.53;51.05;101040.25;5054640;28;20033;-63
2022/04/04 07:37:40;;;;;;;11.30;7.97;;;;;;;9.59;50.96;101036.31;5065220;28;20128;-64
2022/04/04 07:40:10;;;;;;;10.95;7.85;;;;;;;9.62;50.84;101026.25;5057961;28;20057;-63
2022/04/04 07:42:39;;;;;;;10.27;7.03;;;;;;;9.66;50.82;101033.19;5067454;28;20107;-62
2022/04/04 07:45:07;;;;;;;11.32;7.15;;;;;;;9.70;50.71;101023.13;5074447;28;20087;-62
2022/04/04 07:47:34;;;;;;;12.02;7.53;;;;;;;9.74;50.69;101021.94;5074161;28;20047;-65
2022/04/04 07:50:00;;;;;;;10.43;7.82;;;;;;;9.79;50.79;101015.31;5053191;28;20052;-62
2022/04/04 07:52:27;;;;;;;9.25;7.68;;;;;;;9.85;50.65;101019.44;5054393;28;20068;-65
2022/04/04 07:54:55;;;;;;;10.13;7.82;;;;;;;9.88;50.63;101014.72;5036047;28;20052;-64
2022/04/04 07:57:23;;;;;;;10.82;7.18;;;;;;;9.94;50.54;101008.09;5054046;28;20041;-64
2022/04/04 07:59:51;;;;;;;8.93;7.10;;;;;;;9.99;50.42;101003.28;5054467;28;20052;-65
2022/04/04 08:02:18;;;;;;;9.05;7.25;;;;;;;10.03;50.48;100990.53;5054408;28;20128;-64
2022/04/04 08:04:46;;;;;;;11.07;7.25;;;;;;;10.08;50.32;101001.81;5054514;28;20048;-65
2022/04/04 08:07:13;;;;;;;12.07;7.15;;;;;;;10.12;50.32;101001.50;5054021;28;20045;-65
2022/04/04 08:09:39;;;;;;;10.00;8.35;;;;;;;10.15;50.14;100982.53;5059750;28;20045;-65
2022/04/04 08:12:06;;;;;;;11.98;7.45;;;;;;;10.18;50.12;100974.25;5073960;28;20038;-64
2022/04/04 08:14:36;;;;;;;9.82;6.85;;;;;;;10.23;50.02;100973.13;5039374;28;20051;-65
2022/04/04 08:17:03;;;;;;;11.85;6.78;;;;;;;10.25;49.94;100966.69;5074006;28;20041;-65
2022/04/04 08:19:32;;;;;;;9.43;7.30;;;;;;;10.27;49.91;100961.22;5074090;28;20098;-65
2022/04/04 08:22:00;;;;;;;10.48;7.47;;;;;;;10.31;49.83;100958.22;5056337;28;20090;-64
2022/04/04 08:24:26;;;;;;;8.23;6.88;;;;;;;10.33;49.76;100950.06;5073968;28;20067;-65
2022/04/04 08:26:53;;;;;;;10.88;6.93;;;;;;;10.36;49.80;100948.03;5073423;28;20099;-65
2022/04/04 08:29:20;;;;;;;11.25;7.88;;;;;;;10.41;49.87;100940.56;5073603;28;20049;-64
2022/04/04 08:31:47;;;;;;;11.20;7.32;;;;;;;10.45;49.60;100930.47;5073983;28;20410;-66
2022/04/04 08:34:13;;;;;;;10.45;7.43;;;;;;;10.47;49.60;100926.69;5055528;28;20462;-65
2022/04/04 08:36:41;;;;;;;8.82;7.20;;;;;;;10.53;49.66;100925.41;5073544;28;20045;-65
2022/04/04 08:39:07;;;;;;;12.15;7.63;;;;;;;10.57;49.58;100916.19;5073294;28;20041;-65
2022/04/04 08:41:38;;;;;;;13.95;8.18;;;;;;;10.61;49.73;100917.69;5073720;28;20079;-65
2022/04/04 08:44:06;;;;;;;10.32;7.20;;;;;;;10.67;49.71;100889.53;5058026;28;20123;-65
2022/04/04 08:46:33;;;;;;;11.52;7.85;;;;;;;10.71;49.81;100899.09;5073360;28;20143;-65
2022/04/04 08:49:05;;;;;;;11.88;7.82;;;;;;;10.75;49.72;100901.44;5073299;28;20048;-65
2022/04/04 08:51:32;;;;;;;14.95;8.60;;;;;;;10.78;49.60;100890.47;5073299;28;20563;-65
2022/04/04 08:54:00;;;;;;;9.27;7.57;;;;;;;10.81;49.68;100887.59;5073513;28;20041;-66
2022/04/04 08:56:27;;;;;;;11.90;7.43;;;;;;;10.86;49.69;100881.03;5073433;28;20123;-65
2022/04/04 08:58:55;;;;;;;10.85;7.78;;;;;;;10.91;49.62;100886.91;5072993;28;20044;-65
2022/04/04 09:01:24;;;;;;;11.88;6.70;;;;;;;10.93;49.61;100875.09;5073207;28;20046;-66
2022/04/04 09:04:00;;;;;;;12.98;7.80;;;;;;;10.96;49.52;100860.56;5073468;28;20053;-65
2022/04/04 09:06:28;;;;;;;12.52;7.40;;;;;;;10.98;49.31;100861.31;5055255;28;20052;-66
2022/04/04 09:08:56;;;;;;;10.73;7.68;;;;;;;11.01;49.33;100861.09;5055458;28;20571;-65
2022/04/04 09:11:23;;;;;;;13.15;8.23;;;;;;;11.05;49.34;100858.09;5055291;28;20444;-66
2022/04/04 09:14:05;;;;;;;15.35;7.25;;;;;;;11.08;49.20;100857.84;5055277;28;20051;-66
2022/04/04 09:16:32;;;;;;;13.13;7.47;;;;;;;11.12;49.09;100845.06;5071673;28;20040;-65
2022/04/04 09:18:59;;;;;;;13.55;7.10;;;;;;;11.14;49.16;100845.78;5073411;28;20044;-65
2022/04/04 09:21:25;;;;;;;15.50;7.57;;;;;;;11.14;48.98;100846.66;5073189;28;20040;-65
2022/04/04 09:23:54;;;;;;;20.83;7.75;;;;;;;11.16;48.63;100841.19;5073401;28;20147;-66
2022/04/04 09:26:41;;;;;;;15.38;8.18;;;;;;;11.16;48.79;100843.88;5073015;28;20044;-64
2022/04/04 09:29:24;;;;;;;17.05;7.18;;;;;;;11.16;48.71;100849.25;5073338;28;20044;-66
2022/04/04 09:32:05;;;;;;;20.15;7.88;;;;;;;11.15;48.55;100839.47;5072589;28;20433;-66
2022/04/04 09:34:51;;;;;;;20.67;8.55;;;;;;;11.13;48.62;100850.31;5072819;28;20079;-65
2022/04/04 09:37:22;;;;;;;19.20;7.63;;;;;;;11.13;48.71;100836.88;5072756;28;20044;-67
2022/04/04 09:40:03;;;;;;;18.45;9.38;;;;;;;11.12;48.60;100847.75;5055103;28;20062;-66
2022/04/04 09:42:41;;;;;;;10.73;7.35;;;;;;;11.11;48.87;100824.53;5073068;28;20051;-65
2022/04/04 09:45:10;;;;;;;16.13;9.05;;;;;;;11.09;48.98;100837.22;5072759;28;20127;-65
2022/04/04 09:47:49;;;;;;;17.15;8.93;;;;;;;11.07;49.18;100823.03;5055067;28;20402;-65
2022/04/04 09:50:30;;;;;;;14.25;8.57;;;;;;;11.04;49.28;100823.25;5054843;28;20036;-65
2022/04/04 09:53:00;;;;;;;12.85;8.43;;;;;;;11.00;49.25;100833.38;5076799;28;20444;-66
2022/04/04 09:55:30;;;;;;;16.88;9.10;;;;;;;10.97;49.51;100822.84;5054680;28;20052;-66
2022/04/04 09:57:59;;;;;;;12.23;8.18;;;;;;;10.95;49.57;100816.72;5072471;28;20037;-66
2022/04/04 10:00:26;;;;;;;12.00;8.80;;;;;;;10.93;49.68;100820.50;5072440;28;20060;-65
2022/04/04 10:02:57;;;;;;;12.48;8.68;;;;;;;10.88;50.08;100814.59;5054723;28;20045;-65
2022/04/04 10:05:27;;;;;;;12.10;7.97;;;;;;;10.84;50.18;100816.66;5072267;28;20523;-66
2022/04/04 10:07:56;;;;;;;13.55;9.20;;;;;;;10.83;50.31;100813.09;5054468;28;20055;-66
2022/04/04 10:10:30;;;;;;;11.48;8.20;;;;;;;10.82;50.48;100794.41;5054995;28;20044;-66
2022/04/04 10:12:58;;;;;;;18.88;9.07;;;;;;;10.81;50.60;100795.38;5072782;28;20036;-67
2022/04/04 10:15:30;;;;;;;10.80;8.60;;;;;;;10.78;50.57;100806.34;5076570;28;20067;-66
2022/04/04 10:17:57;;;;;;;11.23;8.45;;;;;;;10.74;50.66;100804.84;5075915;28;20041;-66
2022/04/04 10:20:25;;;;;;;13.70;9.20;;;;;;;10.71;50.93;100795.19;5076200;28;20044;-66
2022/04/04 10:22:54;;;;;;;11.77;8.68;;;;;;;10.68;51.07;100797.25;5058313;28;20040;-66
2022/04/04 10:25:24;;;;;;;12.25;8.98;;;;;;;10.66;51.16;100791.13;5075749;28;20102;-66
2022/04/04 10:27:52;;;;;;;13.32;8.70;;;;;;;10.65;51.32;100790.25;5076039;28;20128;-66
2022/04/04 10:30:34;;;;;;;11.43;9.25;;;;;;;10.62;51.48;100782.44;5075999;28;20123;-65
2022/04/04 10:33:03;;;;;;;18.08;10.30;;;;;;;10.62;51.56;100781.56;5076101;28;20521;-66
2022/04/04 10:35:31;;;;;;;12.48;9.10;;;;;;;10.62;51.82;100778.88;5075943;28;20043;-66
2022/04/04 10:38:03;;;;;;;14.20;9.10;;;;;;;10.62;51.80;100777.06;5075312;28;20064;-66
2022/04/04 10:40:33;;;;;;;15.80;9.50;;;;;;;10.65;52.08;100775.97;5073300;28;20051;-66
2022/04/04 10:43:03;;;;;;;12.35;8.80;;;;;;;10.66;52.21;100775.88;5075621;28;20045;-65
2022/04/04 10:45:31;;;;;;;13.43;9.75;;;;;;;10.67;52.15;100780.28;5075829;28;20040;-66
2022/04/04 10:48:06;;;;;;;14.63;9.35;;;;;;;10.66;52.40;100775.88;5075552;28;20460;-66
2022/04/04 10:50:41;;;;;;;16.67;10.30;;;;;;;10.65;52.35;100774.16;5075550;28;20044;-67
2022/04/04 10:53:08;;;;;;;14.43;10.57;;;;;;;10.65;52.35;100766.09;5074349;28;20485;-64
2022/04/04 10:55:38;;;;;;;14.15;10.35;;;;;;;10.64;52.66;100761.69;5060809;28;20457;-64
2022/04/04 10:58:14;;;;;;;17.30;10.43;;;;;;;10.67;52.90;100761.47;5074897;28;20127;-65
2022/04/04 11:01:09;;;;;;;16.05;10.93;;;;;;;10.68;53.01;100754.28;5075554;28;20148;-65
2022/04/04 11:03:40;;;;;;;13.55;10.63;;;;;;;10.69;53.14;100748.78;5065711;28;20088;-64
2022/04/04 11:09:12;;;;;;;14.63;10.10;;;;;;;10.65;53.31;100743.75;5075405;28;20041;-65
2022/04/04 11:12:14;;;;;;;13.50;10.10;;;;;;;10.66;53.36;100743.63;5075546;28;20047;-65
2022/04/04 11:15:05;;;;;;;14.38;10.32;;;;;;;10.63;53.52;100741.19;5049376;28;20040;-66
2022/04/04 11:17:38;;;;;;;12.45;9.32;;;;;;;10.62;53.59;100735.91;5073618;28;20128;-66
2022/04/04 11:20:13;;;;;;;13.45;9.55;;;;;;;10.59;53.93;100733.47;5056699;28;20047;-66
2022/04/04 11:23:34;;;;;;;13.50;9.30;;;;;;;10.58;53.82;100718.31;5075805;28;20046;-66
2022/04/04 11:26:24;;;;;;;12.60;9.13;;;;;;;10.59;53.80;100720.88;5063000;28;20059;-67
2022/04/04 11:29:43;;;;;;;11.93;9.75;;;;;;;10.60;54.25;100722.59;5042302;28;20072;-65
2022/04/04 11:32:16;;;;;;;11.15;9.20;;;;;;;10.62;54.09;100728.72;5074534;28;20044;-66
2022/04/04 11:35:08;;;;;;;11.88;9.85;;;;;;;10.63;54.43;100725.06;5057150;28;20044;-67
2022/04/04 11:37:41;;;;;;;10.40;8.13;;;;;;;10.65;54.44;100717.75;5063735;28;20079;-65
2022/04/04 11:40:34;;;;;;;13.77;8.73;;;;;;;10.62;54.35;100717.13;5074725;28;20048;-65
2022/04/04 11:43:08;;;;;;;10.82;9.27;;;;;;;10.62;54.42;100709.06;5074801;28;20040;-65